Josco Star — VRBS3 — position and weather

sailwx.info

Track history (hours):
 
Tides and Currents Weather Stations Pressure Air Temp Water Temp Dewpoint Dewpoint Depression Visibility Wind Speed Wind Dir Waves Ship Positions

Josco Star

Last reported at 2018-Feb-17 05:34 UTC. Time now 2018-Feb-21 11:20 UTC.
Position N 31°16' E 121°45'.

Length 143 m; draft 6.7 m.

Type: Cargo ship. MMSI: 477105800.

Date/timePositionNaut miles runAvg speedWind from/ knotsBaromVisibWave heightAir tempDewpointWater temp
2018-Feb-17 05:34N 31°16' E 121°45'112.8
2018-Feb-17 05:30N 31°16' E 121°46'813.8
2018-Feb-17 04:53N 31°10' E 121°53'513.2
2018-Feb-17 04:30N 31°07' E 121°57'713.3
2018-Feb-17 04:00N 31°04' E 122°05'612.9
2018-Feb-17 03:30N 31°03' E 122°12'510.4
2018-Feb-17 03:00N 31°03' E 122°18'5 9.2
2018-Feb-17 02:30N 31°02' E 122°23'713.5
2018-Feb-17 02:00N 31°00' E 122°31'  
2018-Feb-13 16:11N 33°16' E 135°27'5214.8
2018-Feb-13 12:41N 33°44' E 136°19'314.9
2018-Feb-13 12:30N 33°46' E 136°22'1315.1
2018-Feb-13 11:38N 33°55' E 136°34'415.5
2018-Feb-13 11:24N 33°57' E 136°37'615.0
2018-Feb-13 11:01N 34°01' E 136°43'2813.1
2018-Feb-13 08:53N 34°24' E 137°01'615.1
2018-Feb-13 08:30N 34°30' E 137°02'1313.8
2018-Feb-13 07:32N 34°40' E 136°51'014.3
2018-Feb-13 07:30N 34°40' E 136°51'815.0
2018-Feb-13 06:58N 34°47' E 136°46'714.6
2018-Feb-13 06:31N 34°54' E 136°46'713.0
2018-Feb-13 06:00N 35°00' E 136°47'1 2.4
2018-Feb-13 05:27N 35°01' E 136°48'0 0.0
2018-Feb-13 04:57N 35°01' E 136°48'0 0.0
2018-Feb-13 04:27N 35°01' E 136°48'0 0.0
2018-Feb-13 03:57N 35°01' E 136°48'0 0.0
2018-Feb-13 03:27N 35°01' E 136°48'0 0.0
2018-Feb-13 02:57N 35°01' E 136°48'0 0.0
2018-Feb-13 02:27N 35°01' E 136°48'0 0.0
2018-Feb-13 01:57N 35°01' E 136°48'0 0.0
2018-Feb-13 01:27N 35°01' E 136°48'0 0.0
2018-Feb-13 00:57N 35°01' E 136°48'0 0.6
2018-Feb-13 00:30N 35°01' E 136°48'4 7.6
2018-Feb-13 00:00N 34°58' E 136°46'713.7
2018-Feb-12 23:30N 34°51' E 136°47'713.1
2018-Feb-12 23:00N 34°45' E 136°48'712.8
2018-Feb-12 22:29N 34°39' E 136°53'612.8
2018-Feb-12 22:00N 34°35' E 136°59'1012.2
2018-Feb-12 21:13N 34°32' E 137°10'313.0
2018-Feb-12 20:59N 34°31' E 137°13'1813.0
2018-Feb-12 19:38N 34°31' E 137°34'413.5
2018-Feb-12 19:20N 34°32' E 137°39'513.2
2018-Feb-12 18:59N 34°32' E 137°45'612.8
2018-Feb-12 18:30N 34°32' E 137°53'612.2
2018-Feb-12 18:00N 34°32' E 138°00'612.1
2018-Feb-12 17:29N 34°32' E 138°08'612.3
2018-Feb-12 16:59N 34°32' E 138°15'712.4
2018-Feb-12 16:23N 34°32' E 138°24'612.4
2018-Feb-12 15:56N 34°32' E 138°31'811.5
2018-Feb-12 15:17N 34°32' E 138°40'410.9
2018-Feb-12 14:57N 34°32' E 138°44'510.4
2018-Feb-12 14:28N 34°32' E 138°50'5 9.7
2018-Feb-12 14:00N 34°32' E 138°56'5 9.3
2018-Feb-12 13:27N 34°34' E 139°02'510.4
2018-Feb-12 12:58N 34°38' E 139°06'710.8
2018-Feb-12 12:17N 34°43' E 139°12'310.9
2018-Feb-12 12:00N 34°46' E 139°14'611.4
2018-Feb-12 11:29N 34°50' E 139°18'511.1
2018-Feb-12 11:00N 34°54' E 139°24'611.8
2018-Feb-12 10:30N 34°57' E 139°29'612.0
2018-Feb-12 10:00N 35°01' E 139°35'612.6
2018-Feb-12 09:30N 35°05' E 139°41'612.6
2018-Feb-12 09:00N 35°10' E 139°45'612.3
2018-Feb-12 08:30N 35°16' E 139°46'612.7
2018-Feb-12 08:01N 35°22' E 139°42'612.6
2018-Feb-12 07:30N 35°27' E 139°46'2 4.7
2018-Feb-12 07:01N 35°29' E 139°45'0 0.2
2018-Feb-12 06:29N 35°29' E 139°45'0 0.0
2018-Feb-12 05:59N 35°29' E 139°45'0 0.0
2018-Feb-12 05:26N 35°29' E 139°45'0 0.0
2018-Feb-12 05:00N 35°29' E 139°45'2 3.7
2018-Feb-12 04:30N 35°28' E 139°46'2 3.6
2018-Feb-12 04:00N 35°28' E 139°48'5 9.3
2018-Feb-12 03:30N 35°32' E 139°51'5 9.5
2018-Feb-12 03:00N 35°36' E 139°47'0 0.8
2018-Feb-12 02:30N 35°36' E 139°47'0 0.0
2018-Feb-12 02:00N 35°36' E 139°47'0 0.0
2018-Feb-12 01:30N 35°36' E 139°47'0 0.0
2018-Feb-12 01:00N 35°36' E 139°47'0 0.0
2018-Feb-12 00:30N 35°36' E 139°47'0 0.0
2018-Feb-12 00:00N 35°36' E 139°47'0 0.0
2018-Feb-11 23:30N 35°36' E 139°47'0 0.0
2018-Feb-11 23:00N 35°36' E 139°47'0 0.0
2018-Feb-11 22:30N 35°36' E 139°47'0 0.0
2018-Feb-11 22:00N 35°36' E 139°47'0 0.0
2018-Feb-11 21:30N 35°36' E 139°47'0 0.0
2018-Feb-11 21:00N 35°36' E 139°47'0 0.0
2018-Feb-11 20:30N 35°36' E 139°47'0 0.0
2018-Feb-11 20:00N 35°36' E 139°47'0 0.0
2018-Feb-11 19:30N 35°36' E 139°47'0 0.0
2018-Feb-11 19:00N 35°36' E 139°47'0 0.0
2018-Feb-11 18:30N 35°36' E 139°47'0 0.0
2018-Feb-11 18:00N 35°36' E 139°47'0 0.0
2018-Feb-11 17:30N 35°36' E 139°47'0 0.0
2018-Feb-11 17:00N 35°36' E 139°47'0 0.0
2018-Feb-11 16:30N 35°36' E 139°47'0 0.0
2018-Feb-11 16:00N 35°36' E 139°47'0 0.0
2018-Feb-11 15:30N 35°36' E 139°47'0 0.0
2018-Feb-11 15:00N 35°36' E 139°47'0 0.0
2018-Feb-11 14:30N 35°36' E 139°47'0 0.0
2018-Feb-11 14:00N 35°36' E 139°47'0 0.0
2018-Feb-11 13:30N 35°36' E 139°47'0 0.0
2018-Feb-11 13:00N 35°36' E 139°47'0 0.0
2018-Feb-11 12:30N 35°36' E 139°47'0 0.0
2018-Feb-11 12:00N 35°36' E 139°47'0 0.0
2018-Feb-11 11:29N 35°36' E 139°47'0 0.1
2018-Feb-11 11:00N 35°36' E 139°47'1 2.4
2018-Feb-11 10:30N 35°35' E 139°48'5 9.4
2018-Feb-11 10:00N 35°32' E 139°52'4 9.0
2018-Feb-11 09:30N 35°28' E 139°51'510.2
2018-Feb-11 09:00N 35°26' E 139°45'4 7.1
2018-Feb-11 08:30N 35°27' E 139°41'1 1.4
2018-Feb-11 07:58N 35°26' E 139°41'0 0.0
2018-Feb-11 07:28N 35°26' E 139°41'0 0.0
2018-Feb-11 06:58N 35°26' E 139°41'0 0.0
2018-Feb-11 06:25N 35°26' E 139°41'0 0.0
2018-Feb-11 05:58N 35°26' E 139°41'0 0.0
2018-Feb-11 05:28N 35°26' E 139°41'0 0.0
2018-Feb-11 04:58N 35°26' E 139°41'0 0.0
2018-Feb-11 04:28N 35°26' E 139°41'0 0.0
2018-Feb-11 03:55N 35°26' E 139°41'0 0.0
2018-Feb-11 03:30N 35°26' E 139°41'1 1.9
2018-Feb-11 03:00N 35°27' E 139°41'3 6.8
2018-Feb-11 02:30N 35°24' E 139°43'611.5
2018-Feb-11 02:00N 35°18' E 139°45'611.7
2018-Feb-11 01:30N 35°12' E 139°47'713.8
2018-Feb-11 01:00N 35°06' E 139°45'713.7
2018-Feb-11 00:31N 35°01' E 139°38'713.8
2018-Feb-11 00:00N 34°57' E 139°32'816.2
2018-Feb-10 23:29N 34°52' E 139°23'816.7
2018-Feb-10 23:00N 34°46' E 139°16'816.7
2018-Feb-10 22:30N 34°40' E 139°09'916.8
2018-Feb-10 21:57N 34°34' E 139°02'715.6
2018-Feb-10 21:31N 34°30' E 138°55'915.6
2018-Feb-10 20:57N 34°26' E 138°45'715.7
2018-Feb-10 20:29N 34°23' E 138°37'815.3
2018-Feb-10 19:56N 34°20' E 138°28'715.0
2018-Feb-10 19:29N 34°17' E 138°20'714.4
2018-Feb-10 19:00N 34°14' E 138°12'913.6
2018-Feb-10 18:19N 34°10' E 138°02'15011.6
2018-Feb-10 05:21N 33°45' E 135°04'512.7
2018-Feb-10 04:57N 33°48' E 134°59'511.9
2018-Feb-10 04:29N 33°54' E 134°58'714.6
2018-Feb-10 04:01N 34°01' E 134°58'815.1
2018-Feb-10 03:31N 34°09' E 134°58'815.2
2018-Feb-10 03:01N 34°16' E 134°58'714.3
2018-Feb-10 02:30N 34°23' E 135°02'815.1
2018-Feb-10 02:01N 34°28' E 135°08'714.8
2018-Feb-10 01:31N 34°33' E 135°15'611.3
2018-Feb-10 01:00N 34°39' E 135°16'1 2.5
2018-Feb-10 00:28N 34°39' E 135°15'0 0.0
2018-Feb-09 23:58N 34°39' E 135°15'0 0.0
2018-Feb-09 23:28N 34°39' E 135°15'0 0.0
2018-Feb-09 22:58N 34°39' E 135°15'0 0.0
2018-Feb-09 22:44N 34°39' E 135°15'0 0.4
2018-Feb-09 22:30N 34°39' E 135°15'4 7.2
2018-Feb-09 22:00N 34°38' E 135°19'4 8.6
2018-Feb-09 21:30N 34°39' E 135°24'9 1.0
2018-Feb-09 12:31N 34°32' E 135°16'714.4
2018-Feb-09 12:00N 34°27' E 135°10'1413.8
2018-Feb-09 11:01N 34°17' E 134°59'713.7
2018-Feb-09 10:30N 34°10' E 134°59'2214.5
2018-Feb-09 09:00N 33°48' E 134°58'  
Track history (hours):
 
Tides and Currents Weather Stations Pressure Air Temp Water Temp Dewpoint Dewpoint Depression Visibility Wind Speed Wind Dir Waves Ship Positions

Josco Star

Last reported at 2018-Feb-17 05:34 UTC. Time now 2018-Feb-21 11:20 UTC.
Position N 31°16' E 121°45'.

Length 143 m; draft 6.7 m.

Type: Cargo ship. MMSI: 477105800.

Date/timePositionNaut miles runAvg speedWind from/ knotsBaromVisibWave heightAir tempDewpointWater temp
2018-Feb-17 05:34N 31°16' E 121°45'112.8
2018-Feb-17 05:30N 31°16' E 121°46'813.8
2018-Feb-17 04:53N 31°10' E 121°53'513.2
2018-Feb-17 04:30N 31°07' E 121°57'713.3
2018-Feb-17 04:00N 31°04' E 122°05'612.9
2018-Feb-17 03:30N 31°03' E 122°12'510.4
2018-Feb-17 03:00N 31°03' E 122°18'5 9.2
2018-Feb-17 02:30N 31°02' E 122°23'713.5
2018-Feb-17 02:00N 31°00' E 122°31'  
2018-Feb-13 16:11N 33°16' E 135°27'5214.8
2018-Feb-13 12:41N 33°44' E 136°19'314.9
2018-Feb-13 12:30N 33°46' E 136°22'1315.1
2018-Feb-13 11:38N 33°55' E 136°34'415.5
2018-Feb-13 11:24N 33°57' E 136°37'615.0
2018-Feb-13 11:01N 34°01' E 136°43'2813.1
2018-Feb-13 08:53N 34°24' E 137°01'615.1
2018-Feb-13 08:30N 34°30' E 137°02'1313.8
2018-Feb-13 07:32N 34°40' E 136°51'014.3
2018-Feb-13 07:30N 34°40' E 136°51'815.0
2018-Feb-13 06:58N 34°47' E 136°46'714.6
2018-Feb-13 06:31N 34°54' E 136°46'713.0
2018-Feb-13 06:00N 35°00' E 136°47'1 2.4
2018-Feb-13 05:27N 35°01' E 136°48'0 0.0
2018-Feb-13 04:57N 35°01' E 136°48'0 0.0
2018-Feb-13 04:27N 35°01' E 136°48'0 0.0
2018-Feb-13 03:57N 35°01' E 136°48'0 0.0
2018-Feb-13 03:27N 35°01' E 136°48'0 0.0
2018-Feb-13 02:57N 35°01' E 136°48'0 0.0
2018-Feb-13 02:27N 35°01' E 136°48'0 0.0
2018-Feb-13 01:57N 35°01' E 136°48'0 0.0
2018-Feb-13 01:27N 35°01' E 136°48'0 0.0
2018-Feb-13 00:57N 35°01' E 136°48'0 0.6
2018-Feb-13 00:30N 35°01' E 136°48'4 7.6
2018-Feb-13 00:00N 34°58' E 136°46'713.7
2018-Feb-12 23:30N 34°51' E 136°47'713.1
2018-Feb-12 23:00N 34°45' E 136°48'712.8
2018-Feb-12 22:29N 34°39' E 136°53'612.8
2018-Feb-12 22:00N 34°35' E 136°59'1012.2
2018-Feb-12 21:13N 34°32' E 137°10'313.0
2018-Feb-12 20:59N 34°31' E 137°13'1813.0
2018-Feb-12 19:38N 34°31' E 137°34'413.5
2018-Feb-12 19:20N 34°32' E 137°39'513.2
2018-Feb-12 18:59N 34°32' E 137°45'612.8
2018-Feb-12 18:30N 34°32' E 137°53'612.2
2018-Feb-12 18:00N 34°32' E 138°00'612.1
2018-Feb-12 17:29N 34°32' E 138°08'612.3
2018-Feb-12 16:59N 34°32' E 138°15'712.4
2018-Feb-12 16:23N 34°32' E 138°24'612.4
2018-Feb-12 15:56N 34°32' E 138°31'811.5
2018-Feb-12 15:17N 34°32' E 138°40'410.9
2018-Feb-12 14:57N 34°32' E 138°44'510.4
2018-Feb-12 14:28N 34°32' E 138°50'5 9.7
2018-Feb-12 14:00N 34°32' E 138°56'5 9.3
2018-Feb-12 13:27N 34°34' E 139°02'510.4
2018-Feb-12 12:58N 34°38' E 139°06'710.8
2018-Feb-12 12:17N 34°43' E 139°12'310.9
2018-Feb-12 12:00N 34°46' E 139°14'611.4
2018-Feb-12 11:29N 34°50' E 139°18'511.1
2018-Feb-12 11:00N 34°54' E 139°24'611.8
2018-Feb-12 10:30N 34°57' E 139°29'612.0
2018-Feb-12 10:00N 35°01' E 139°35'612.6
2018-Feb-12 09:30N 35°05' E 139°41'612.6
2018-Feb-12 09:00N 35°10' E 139°45'612.3
2018-Feb-12 08:30N 35°16' E 139°46'612.7
2018-Feb-12 08:01N 35°22' E 139°42'612.6
2018-Feb-12 07:30N 35°27' E 139°46'2 4.7
2018-Feb-12 07:01N 35°29' E 139°45'0 0.2
2018-Feb-12 06:29N 35°29' E 139°45'0 0.0
2018-Feb-12 05:59N 35°29' E 139°45'0 0.0
2018-Feb-12 05:26N 35°29' E 139°45'0 0.0
2018-Feb-12 05:00N 35°29' E 139°45'2 3.7
2018-Feb-12 04:30N 35°28' E 139°46'2 3.6
2018-Feb-12 04:00N 35°28' E 139°48'5 9.3
2018-Feb-12 03:30N 35°32' E 139°51'5 9.5
2018-Feb-12 03:00N 35°36' E 139°47'0 0.8
2018-Feb-12 02:30N 35°36' E 139°47'0 0.0
2018-Feb-12 02:00N 35°36' E 139°47'0 0.0
2018-Feb-12 01:30N 35°36' E 139°47'0 0.0
2018-Feb-12 01:00N 35°36' E 139°47'0 0.0
2018-Feb-12 00:30N 35°36' E 139°47'0 0.0
2018-Feb-12 00:00N 35°36' E 139°47'0 0.0
2018-Feb-11 23:30N 35°36' E 139°47'0 0.0
2018-Feb-11 23:00N 35°36' E 139°47'0 0.0
2018-Feb-11 22:30N 35°36' E 139°47'0 0.0
2018-Feb-11 22:00N 35°36' E 139°47'0 0.0
2018-Feb-11 21:30N 35°36' E 139°47'0 0.0
2018-Feb-11 21:00N 35°36' E 139°47'0 0.0
2018-Feb-11 20:30N 35°36' E 139°47'0 0.0
2018-Feb-11 20:00N 35°36' E 139°47'0 0.0
2018-Feb-11 19:30N 35°36' E 139°47'0 0.0
2018-Feb-11 19:00N 35°36' E 139°47'0 0.0
2018-Feb-11 18:30N 35°36' E 139°47'0 0.0
2018-Feb-11 18:00N 35°36' E 139°47'0 0.0
2018-Feb-11 17:30N 35°36' E 139°47'0 0.0
2018-Feb-11 17:00N 35°36' E 139°47'0 0.0
2018-Feb-11 16:30N 35°36' E 139°47'0 0.0
2018-Feb-11 16:00N 35°36' E 139°47'0 0.0
2018-Feb-11 15:30N 35°36' E 139°47'0 0.0
2018-Feb-11 15:00N 35°36' E 139°47'0 0.0
2018-Feb-11 14:30N 35°36' E 139°47'0 0.0
2018-Feb-11 14:00N 35°36' E 139°47'0 0.0
2018-Feb-11 13:30N 35°36' E 139°47'0 0.0
2018-Feb-11 13:00N 35°36' E 139°47'0 0.0
2018-Feb-11 12:30N 35°36' E 139°47'0 0.0
2018-Feb-11 12:00N 35°36' E 139°47'0 0.0
2018-Feb-11 11:29N 35°36' E 139°47'0 0.1
2018-Feb-11 11:00N 35°36' E 139°47'1 2.4
2018-Feb-11 10:30N 35°35' E 139°48'5 9.4
2018-Feb-11 10:00N 35°32' E 139°52'4 9.0
2018-Feb-11 09:30N 35°28' E 139°51'510.2
2018-Feb-11 09:00N 35°26' E 139°45'4 7.1
2018-Feb-11 08:30N 35°27' E 139°41'1 1.4
2018-Feb-11 07:58N 35°26' E 139°41'0 0.0
2018-Feb-11 07:28N 35°26' E 139°41'0 0.0
2018-Feb-11 06:58N 35°26' E 139°41'0 0.0
2018-Feb-11 06:25N 35°26' E 139°41'0 0.0
2018-Feb-11 05:58N 35°26' E 139°41'0 0.0
2018-Feb-11 05:28N 35°26' E 139°41'0 0.0
2018-Feb-11 04:58N 35°26' E 139°41'0 0.0
2018-Feb-11 04:28N 35°26' E 139°41'0 0.0
2018-Feb-11 03:55N 35°26' E 139°41'0 0.0
2018-Feb-11 03:30N 35°26' E 139°41'1 1.9
2018-Feb-11 03:00N 35°27' E 139°41'3 6.8
2018-Feb-11 02:30N 35°24' E 139°43'611.5
2018-Feb-11 02:00N 35°18' E 139°45'611.7
2018-Feb-11 01:30N 35°12' E 139°47'713.8
2018-Feb-11 01:00N 35°06' E 139°45'713.7
2018-Feb-11 00:31N 35°01' E 139°38'713.8
2018-Feb-11 00:00N 34°57' E 139°32'816.2
2018-Feb-10 23:29N 34°52' E 139°23'816.7
2018-Feb-10 23:00N 34°46' E 139°16'816.7
2018-Feb-10 22:30N 34°40' E 139°09'916.8
2018-Feb-10 21:57N 34°34' E 139°02'715.6
2018-Feb-10 21:31N 34°30' E 138°55'915.6
2018-Feb-10 20:57N 34°26' E 138°45'715.7
2018-Feb-10 20:29N 34°23' E 138°37'815.3
2018-Feb-10 19:56N 34°20' E 138°28'715.0
2018-Feb-10 19:29N 34°17' E 138°20'714.4
2018-Feb-10 19:00N 34°14' E 138°12'913.6
2018-Feb-10 18:19N 34°10' E 138°02'15011.6
2018-Feb-10 05:21N 33°45' E 135°04'512.7
2018-Feb-10 04:57N 33°48' E 134°59'511.9
2018-Feb-10 04:29N 33°54' E 134°58'714.6
2018-Feb-10 04:01N 34°01' E 134°58'815.1
2018-Feb-10 03:31N 34°09' E 134°58'815.2
2018-Feb-10 03:01N 34°16' E 134°58'714.3
2018-Feb-10 02:30N 34°23' E 135°02'815.1
2018-Feb-10 02:01N 34°28' E 135°08'714.8
2018-Feb-10 01:31N 34°33' E 135°15'611.3
2018-Feb-10 01:00N 34°39' E 135°16'1 2.5
2018-Feb-10 00:28N 34°39' E 135°15'0 0.0
2018-Feb-09 23:58N 34°39' E 135°15'0 0.0
2018-Feb-09 23:28N 34°39' E 135°15'0 0.0
2018-Feb-09 22:58N 34°39' E 135°15'0 0.0
2018-Feb-09 22:44N 34°39' E 135°15'0 0.4
2018-Feb-09 22:30N 34°39' E 135°15'4 7.2
2018-Feb-09 22:00N 34°38' E 135°19'4 8.6
2018-Feb-09 21:30N 34°39' E 135°24'9 1.0
2018-Feb-09 12:31N 34°32' E 135°16'714.4
2018-Feb-09 12:00N 34°27' E 135°10'1413.8
2018-Feb-09 11:01N 34°17' E 134°59'713.7
2018-Feb-09 10:30N 34°10' E 134°59'2214.5
2018-Feb-09 09:00N 33°48' E 134°58'  

Dump ship's entire track history